sensor_id;sensor_type;location;lat;lon;timestamp;P1;durP1;ratioP1;P2;durP2;ratioP2
15449;SDS011;7826;49.784;9.934;2023-06-14T00:02:17;2.60;;;2.40;;
15449;SDS011;7826;49.784;9.934;2023-06-14T00:04:43;3.00;;;2.70;;
15449;SDS011;7826;49.784;9.934;2023-06-14T00:07:10;7.07;;;2.43;;
15449;SDS011;7826;49.784;9.934;2023-06-14T00:09:39;4.37;;;2.50;;
15449;SDS011;7826;49.784;9.934;2023-06-14T00:12:06;2.73;;;2.40;;
15449;SDS011;7826;49.784;9.934;2023-06-14T00:14:33;2.60;;;2.40;;
15449;SDS011;7826;49.784;9.934;2023-06-14T00:16:59;3.53;;;2.40;;
15449;SDS011;7826;49.784;9.934;2023-06-14T00:19:27;4.93;;;2.40;;
15449;SDS011;7826;49.784;9.934;2023-06-14T00:21:53;3.43;;;2.40;;
15449;SDS011;7826;49.784;9.934;2023-06-14T00:24:20;2.60;;;2.40;;
15449;SDS011;7826;49.784;9.934;2023-06-14T00:26:47;3.97;;;2.53;;
15449;SDS011;7826;49.784;9.934;2023-06-14T00:29:13;2.50;;;2.30;;
15449;SDS011;7826;49.784;9.934;2023-06-14T00:31:40;3.10;;;2.43;;
15449;SDS011;7826;49.784;9.934;2023-06-14T00:34:06;4.83;;;2.30;;
15449;SDS011;7826;49.784;9.934;2023-06-14T00:36:33;2.77;;;2.57;;
15449;SDS011;7826;49.784;9.934;2023-06-14T00:38:59;2.37;;;2.20;;
15449;SDS011;7826;49.784;9.934;2023-06-14T00:41:26;2.73;;;2.53;;
15449;SDS011;7826;49.784;9.934;2023-06-14T00:43:52;3.73;;;2.60;;
15449;SDS011;7826;49.784;9.934;2023-06-14T00:46:22;2.97;;;2.67;;
15449;SDS011;7826;49.784;9.934;2023-06-14T00:48:49;3.97;;;3.20;;
15449;SDS011;7826;49.784;9.934;2023-06-14T00:51:16;3.50;;;3.00;;
15449;SDS011;7826;49.784;9.934;2023-06-14T00:53:43;3.30;;;3.00;;
15449;SDS011;7826;49.784;9.934;2023-06-14T00:56:13;2.77;;;2.57;;
15449;SDS011;7826;49.784;9.934;2023-06-14T00:58:40;4.17;;;2.60;;
15449;SDS011;7826;49.784;9.934;2023-06-14T01:01:07;3.53;;;2.70;;
15449;SDS011;7826;49.784;9.934;2023-06-14T01:03:34;3.63;;;2.83;;
15449;SDS011;7826;49.784;9.934;2023-06-14T01:06:22;5.23;;;2.80;;
15449;SDS011;7826;49.784;9.934;2023-06-14T01:09:00;6.73;;;3.33;;
15449;SDS011;7826;49.784;9.934;2023-06-14T01:12:27;19.83;;;4.37;;
15449;SDS011;7826;49.784;9.934;2023-06-14T01:14:33;7.07;;;3.20;;
15449;SDS011;7826;49.784;9.934;2023-06-14T01:17:01;9.53;;;3.03;;
15449;SDS011;7826;49.784;9.934;2023-06-14T01:19:28;6.27;;;2.70;;
15449;SDS011;7826;49.784;9.934;2023-06-14T01:21:55;3.40;;;2.90;;
15449;SDS011;7826;49.784;9.934;2023-06-14T01:24:22;4.20;;;3.13;;
15449;SDS011;7826;49.784;9.934;2023-06-14T01:26:52;3.63;;;3.10;;
15449;SDS011;7826;49.784;9.934;2023-06-14T01:29:22;3.03;;;2.80;;
15449;SDS011;7826;49.784;9.934;2023-06-14T01:31:51;5.40;;;3.27;;
15449;SDS011;7826;49.784;9.934;2023-06-14T01:34:19;3.00;;;2.80;;
15449;SDS011;7826;49.784;9.934;2023-06-14T01:36:46;3.43;;;2.93;;
15449;SDS011;7826;49.784;9.934;2023-06-14T01:39:14;3.23;;;2.90;;
15449;SDS011;7826;49.784;9.934;2023-06-14T01:41:42;3.40;;;3.07;;
15449;SDS011;7826;49.784;9.934;2023-06-14T01:44:10;5.77;;;3.30;;
15449;SDS011;7826;49.784;9.934;2023-06-14T01:46:37;4.37;;;3.00;;
15449;SDS011;7826;49.784;9.934;2023-06-14T01:49:04;4.63;;;3.03;;
15449;SDS011;7826;49.784;9.934;2023-06-14T01:51:30;3.40;;;3.10;;
15449;SDS011;7826;49.784;9.934;2023-06-14T01:53:57;3.40;;;3.10;;
15449;SDS011;7826;49.784;9.934;2023-06-14T01:56:24;3.37;;;3.07;;
15449;SDS011;7826;49.784;9.934;2023-06-14T01:58:51;5.03;;;3.20;;
15449;SDS011;7826;49.784;9.934;2023-06-14T02:01:19;3.50;;;3.20;;
15449;SDS011;7826;49.784;9.934;2023-06-14T02:03:47;3.60;;;3.30;;
15449;SDS011;7826;49.784;9.934;2023-06-14T02:06:15;4.40;;;3.30;;
15449;SDS011;7826;49.784;9.934;2023-06-14T02:08:44;3.20;;;2.80;;
15449;SDS011;7826;49.784;9.934;2023-06-14T02:11:11;4.13;;;3.43;;
15449;SDS011;7826;49.784;9.934;2023-06-14T02:13:37;4.63;;;3.27;;
15449;SDS011;7826;49.784;9.934;2023-06-14T02:16:04;3.87;;;3.10;;
15449;SDS011;7826;49.784;9.934;2023-06-14T02:18:31;4.13;;;3.67;;
15449;SDS011;7826;49.784;9.934;2023-06-14T02:20:58;5.53;;;3.03;;
15449;SDS011;7826;49.784;9.934;2023-06-14T02:23:24;3.87;;;3.47;;
15449;SDS011;7826;49.784;9.934;2023-06-14T02:25:51;3.53;;;3.23;;
15449;SDS011;7826;49.784;9.934;2023-06-14T02:28:17;4.60;;;3.80;;
15449;SDS011;7826;49.784;9.934;2023-06-14T02:30:44;3.47;;;3.17;;
15449;SDS011;7826;49.784;9.934;2023-06-14T02:33:10;4.63;;;3.53;;
15449;SDS011;7826;49.784;9.934;2023-06-14T02:35:38;4.50;;;3.77;;
15449;SDS011;7826;49.784;9.934;2023-06-14T02:38:05;4.37;;;3.97;;
15449;SDS011;7826;49.784;9.934;2023-06-14T02:40:31;5.03;;;3.73;;
15449;SDS011;7826;49.784;9.934;2023-06-14T02:42:58;4.40;;;4.00;;
15449;SDS011;7826;49.784;9.934;2023-06-14T02:45:25;3.77;;;3.47;;
15449;SDS011;7826;49.784;9.934;2023-06-14T02:47:51;4.67;;;4.17;;
15449;SDS011;7826;49.784;9.934;2023-06-14T02:50:18;6.80;;;3.93;;
15449;SDS011;7826;49.784;9.934;2023-06-14T02:52:44;5.20;;;3.70;;
15449;SDS011;7826;49.784;9.934;2023-06-14T02:55:11;4.80;;;4.40;;
15449;SDS011;7826;49.784;9.934;2023-06-14T02:57:38;5.30;;;4.03;;
15449;SDS011;7826;49.784;9.934;2023-06-14T03:00:04;4.57;;;4.17;;
15449;SDS011;7826;49.784;9.934;2023-06-14T03:02:35;4.67;;;4.13;;
15449;SDS011;7826;49.784;9.934;2023-06-14T03:05:02;4.23;;;3.90;;
15449;SDS011;7826;49.784;9.934;2023-06-14T03:07:29;9.33;;;4.47;;
15449;SDS011;7826;49.784;9.934;2023-06-14T03:09:55;6.70;;;3.90;;
15449;SDS011;7826;49.784;9.934;2023-06-14T03:12:22;4.57;;;4.17;;
15449;SDS011;7826;49.784;9.934;2023-06-14T03:14:49;6.80;;;4.60;;
15449;SDS011;7826;49.784;9.934;2023-06-14T03:17:17;4.77;;;3.73;;
15449;SDS011;7826;49.784;9.934;2023-06-14T03:19:45;7.17;;;4.50;;
15449;SDS011;7826;49.784;9.934;2023-06-14T03:22:11;7.13;;;4.43;;
15449;SDS011;7826;49.784;9.934;2023-06-14T03:24:38;5.13;;;3.83;;
15449;SDS011;7826;49.784;9.934;2023-06-14T03:27:05;3.70;;;3.40;;
15449;SDS011;7826;49.784;9.934;2023-06-14T03:29:32;5.10;;;3.77;;
15449;SDS011;7826;49.784;9.934;2023-06-14T03:31:59;5.27;;;4.20;;
15449;SDS011;7826;49.784;9.934;2023-06-14T03:34:27;7.17;;;3.80;;
15449;SDS011;7826;49.784;9.934;2023-06-14T03:36:53;6.23;;;3.83;;
15449;SDS011;7826;49.784;9.934;2023-06-14T03:39:20;6.50;;;4.20;;
15449;SDS011;7826;49.784;9.934;2023-06-14T03:41:47;5.63;;;3.77;;
15449;SDS011;7826;49.784;9.934;2023-06-14T03:44:15;4.87;;;4.00;;
15449;SDS011;7826;49.784;9.934;2023-06-14T03:46:43;4.43;;;3.93;;
15449;SDS011;7826;49.784;9.934;2023-06-14T03:49:13;3.90;;;3.50;;
15449;SDS011;7826;49.784;9.934;2023-06-14T03:51:42;4.70;;;4.27;;
15449;SDS011;7826;49.784;9.934;2023-06-14T03:54:08;4.90;;;4.50;;
15449;SDS011;7826;49.784;9.934;2023-06-14T03:56:35;5.20;;;4.70;;
15449;SDS011;7826;49.784;9.934;2023-06-14T03:59:01;5.70;;;4.30;;
15449;SDS011;7826;49.784;9.934;2023-06-14T04:01:28;5.47;;;4.00;;
15449;SDS011;7826;49.784;9.934;2023-06-14T04:03:56;5.53;;;4.30;;
15449;SDS011;7826;49.784;9.934;2023-06-14T04:06:23;5.07;;;4.10;;
15449;SDS011;7826;49.784;9.934;2023-06-14T04:08:58;6.00;;;4.03;;
15449;SDS011;7826;49.784;9.934;2023-06-14T04:11:30;4.70;;;4.30;;
15449;SDS011;7826;49.784;9.934;2023-06-14T04:13:58;4.60;;;4.20;;
15449;SDS011;7826;49.784;9.934;2023-06-14T04:16:25;4.67;;;4.27;;
15449;SDS011;7826;49.784;9.934;2023-06-14T04:18:52;4.80;;;4.30;;
15449;SDS011;7826;49.784;9.934;2023-06-14T04:21:20;4.80;;;4.40;;
15449;SDS011;7826;49.784;9.934;2023-06-14T04:23:47;5.00;;;4.60;;
15449;SDS011;7826;49.784;9.934;2023-06-14T04:26:13;5.70;;;5.20;;
15449;SDS011;7826;49.784;9.934;2023-06-14T04:28:40;6.50;;;5.37;;
15449;SDS011;7826;49.784;9.934;2023-06-14T04:31:07;6.00;;;5.40;;
15449;SDS011;7826;49.784;9.934;2023-06-14T04:33:36;5.93;;;5.33;;
15449;SDS011;7826;49.784;9.934;2023-06-14T04:36:12;7.60;;;5.50;;
15449;SDS011;7826;49.784;9.934;2023-06-14T04:38:39;5.87;;;5.03;;
15449;SDS011;7826;49.784;9.934;2023-06-14T04:41:07;5.30;;;4.80;;
15449;SDS011;7826;49.784;9.934;2023-06-14T04:43:37;5.40;;;4.90;;
15449;SDS011;7826;49.784;9.934;2023-06-14T04:46:05;5.73;;;5.23;;
15449;SDS011;7826;49.784;9.934;2023-06-14T04:48:37;8.87;;;5.83;;
15449;SDS011;7826;49.784;9.934;2023-06-14T04:51:07;11.10;;;6.13;;
15449;SDS011;7826;49.784;9.934;2023-06-14T04:53:37;6.43;;;5.67;;
15449;SDS011;7826;49.784;9.934;2023-06-14T04:56:03;9.63;;;5.90;;
15449;SDS011;7826;49.784;9.934;2023-06-14T04:58:30;7.83;;;5.57;;
15449;SDS011;7826;49.784;9.934;2023-06-14T05:00:57;7.50;;;4.70;;
15449;SDS011;7826;49.784;9.934;2023-06-14T05:03:25;5.83;;;5.30;;
15449;SDS011;7826;49.784;9.934;2023-06-14T05:05:52;8.27;;;5.30;;
15449;SDS011;7826;49.784;9.934;2023-06-14T05:08:20;6.67;;;5.30;;
15449;SDS011;7826;49.784;9.934;2023-06-14T05:10:49;7.17;;;5.90;;
15449;SDS011;7826;49.784;9.934;2023-06-14T05:13:16;11.93;;;6.20;;
15449;SDS011;7826;49.784;9.934;2023-06-14T05:15:43;6.30;;;5.30;;
15449;SDS011;7826;49.784;9.934;2023-06-14T05:18:10;7.07;;;6.27;;
15449;SDS011;7826;49.784;9.934;2023-06-14T05:20:36;7.00;;;6.00;;
15449;SDS011;7826;49.784;9.934;2023-06-14T05:23:03;5.70;;;5.10;;
15449;SDS011;7826;49.784;9.934;2023-06-14T05:25:29;8.83;;;5.40;;
15449;SDS011;7826;49.784;9.934;2023-06-14T05:27:56;11.10;;;6.03;;
15449;SDS011;7826;49.784;9.934;2023-06-14T05:30:22;6.80;;;6.07;;
15449;SDS011;7826;49.784;9.934;2023-06-14T05:32:49;6.67;;;5.03;;
15449;SDS011;7826;49.784;9.934;2023-06-14T05:35:16;7.97;;;5.30;;
15449;SDS011;7826;49.784;9.934;2023-06-14T05:37:43;8.73;;;6.13;;
15449;SDS011;7826;49.784;9.934;2023-06-14T05:40:09;18.30;;;6.20;;
15449;SDS011;7826;49.784;9.934;2023-06-14T05:42:36;7.97;;;5.73;;
15449;SDS011;7826;49.784;9.934;2023-06-14T05:45:03;6.40;;;5.53;;
15449;SDS011;7826;49.784;9.934;2023-06-14T05:47:30;9.13;;;5.37;;
15449;SDS011;7826;49.784;9.934;2023-06-14T05:49:57;8.17;;;6.10;;
15449;SDS011;7826;49.784;9.934;2023-06-14T05:52:23;6.77;;;5.50;;
15449;SDS011;7826;49.784;9.934;2023-06-14T05:54:49;6.50;;;5.20;;
15449;SDS011;7826;49.784;9.934;2023-06-14T05:57:16;5.83;;;5.10;;
15449;SDS011;7826;49.784;9.934;2023-06-14T05:59:42;8.67;;;5.77;;
15449;SDS011;7826;49.784;9.934;2023-06-14T06:02:09;6.90;;;5.70;;
15449;SDS011;7826;49.784;9.934;2023-06-14T06:04:35;6.23;;;5.63;;
15449;SDS011;7826;49.784;9.934;2023-06-14T06:07:02;7.23;;;5.50;;
15449;SDS011;7826;49.784;9.934;2023-06-14T06:09:29;7.57;;;5.07;;
15449;SDS011;7826;49.784;9.934;2023-06-14T06:11:56;6.53;;;5.27;;
15449;SDS011;7826;49.784;9.934;2023-06-14T06:14:22;10.37;;;6.30;;
15449;SDS011;7826;49.784;9.934;2023-06-14T06:16:49;6.10;;;5.50;;
15449;SDS011;7826;49.784;9.934;2023-06-14T06:19:15;7.43;;;6.20;;
15449;SDS011;7826;49.784;9.934;2023-06-14T06:21:42;6.00;;;5.50;;
15449;SDS011;7826;49.784;9.934;2023-06-14T06:24:08;6.13;;;5.63;;
15449;SDS011;7826;49.784;9.934;2023-06-14T06:26:35;6.40;;;5.67;;
15449;SDS011;7826;49.784;9.934;2023-06-14T06:29:01;8.07;;;5.40;;
15449;SDS011;7826;49.784;9.934;2023-06-14T06:31:28;7.83;;;5.93;;
15449;SDS011;7826;49.784;9.934;2023-06-14T06:33:54;9.10;;;6.27;;
15449;SDS011;7826;49.784;9.934;2023-06-14T06:36:21;10.27;;;6.43;;
15449;SDS011;7826;49.784;9.934;2023-06-14T06:38:48;8.60;;;5.27;;
15449;SDS011;7826;49.784;9.934;2023-06-14T06:41:14;6.43;;;5.83;;
15449;SDS011;7826;49.784;9.934;2023-06-14T06:43:41;6.90;;;5.37;;
15449;SDS011;7826;49.784;9.934;2023-06-14T06:46:08;6.90;;;5.97;;
15449;SDS011;7826;49.784;9.934;2023-06-14T06:48:34;5.77;;;5.23;;
15449;SDS011;7826;49.784;9.934;2023-06-14T06:51:01;8.97;;;5.57;;
15449;SDS011;7826;49.784;9.934;2023-06-14T06:53:27;7.13;;;5.70;;
15449;SDS011;7826;49.784;9.934;2023-06-14T06:55:54;20.70;;;6.57;;
15449;SDS011;7826;49.784;9.934;2023-06-14T06:58:21;6.33;;;5.30;;
15449;SDS011;7826;49.784;9.934;2023-06-14T07:00:48;15.07;;;6.30;;
15449;SDS011;7826;49.784;9.934;2023-06-14T07:03:14;10.00;;;6.30;;
15449;SDS011;7826;49.784;9.934;2023-06-14T07:05:41;11.33;;;6.17;;
15449;SDS011;7826;49.784;9.934;2023-06-14T07:08:08;6.80;;;5.60;;
15449;SDS011;7826;49.784;9.934;2023-06-14T07:10:34;7.97;;;5.80;;
15449;SDS011;7826;49.784;9.934;2023-06-14T07:13:01;8.23;;;5.43;;
15449;SDS011;7826;49.784;9.934;2023-06-14T07:15:27;6.90;;;5.73;;
15449;SDS011;7826;49.784;9.934;2023-06-14T07:17:53;10.70;;;5.90;;
15449;SDS011;7826;49.784;9.934;2023-06-14T07:20:23;8.60;;;6.40;;
15449;SDS011;7826;49.784;9.934;2023-06-14T07:22:50;6.67;;;5.33;;
15449;SDS011;7826;49.784;9.934;2023-06-14T07:25:17;6.17;;;5.57;;
15449;SDS011;7826;49.784;9.934;2023-06-14T07:27:45;7.30;;;5.87;;
15449;SDS011;7826;49.784;9.934;2023-06-14T07:30:12;8.93;;;5.53;;
15449;SDS011;7826;49.784;9.934;2023-06-14T07:32:39;6.53;;;5.93;;
15449;SDS011;7826;49.784;9.934;2023-06-14T07:35:05;6.90;;;5.50;;
15449;SDS011;7826;49.784;9.934;2023-06-14T07:37:32;11.47;;;6.20;;
15449;SDS011;7826;49.784;9.934;2023-06-14T07:39:59;5.77;;;5.27;;
15449;SDS011;7826;49.784;9.934;2023-06-14T07:42:25;6.57;;;5.80;;
15449;SDS011;7826;49.784;9.934;2023-06-14T07:44:52;6.93;;;5.83;;
15449;SDS011;7826;49.784;9.934;2023-06-14T07:47:19;7.67;;;5.63;;
15449;SDS011;7826;49.784;9.934;2023-06-14T07:49:46;6.33;;;5.70;;
15449;SDS011;7826;49.784;9.934;2023-06-14T07:52:12;6.30;;;5.50;;
15449;SDS011;7826;49.784;9.934;2023-06-14T07:54:39;7.47;;;5.87;;
15449;SDS011;7826;49.784;9.934;2023-06-14T07:57:06;6.53;;;5.37;;
15449;SDS011;7826;49.784;9.934;2023-06-14T07:59:33;9.90;;;6.13;;
15449;SDS011;7826;49.784;9.934;2023-06-14T08:02:00;8.47;;;5.90;;
15449;SDS011;7826;49.784;9.934;2023-06-14T08:04:26;7.07;;;5.60;;
15449;SDS011;7826;49.784;9.934;2023-06-14T08:06:53;7.67;;;5.47;;
15449;SDS011;7826;49.784;9.934;2023-06-14T08:09:19;6.10;;;5.50;;
15449;SDS011;7826;49.784;9.934;2023-06-14T08:11:46;7.10;;;5.87;;
15449;SDS011;7826;49.784;9.934;2023-06-14T08:14:12;8.53;;;5.77;;
15449;SDS011;7826;49.784;9.934;2023-06-14T08:16:39;7.00;;;6.10;;
15449;SDS011;7826;49.784;9.934;2023-06-14T08:19:06;10.53;;;7.03;;
15449;SDS011;7826;49.784;9.934;2023-06-14T08:21:32;10.17;;;7.10;;
15449;SDS011;7826;49.784;9.934;2023-06-14T08:23:59;9.70;;;7.27;;
15449;SDS011;7826;49.784;9.934;2023-06-14T08:26:26;9.50;;;7.33;;
15449;SDS011;7826;49.784;9.934;2023-06-14T08:28:55;13.17;;;8.07;;
15449;SDS011;7826;49.784;9.934;2023-06-14T08:31:23;11.67;;;8.50;;
15449;SDS011;7826;49.784;9.934;2023-06-14T08:33:51;13.13;;;8.47;;
15449;SDS011;7826;49.784;9.934;2023-06-14T08:36:17;11.47;;;8.67;;
15449;SDS011;7826;49.784;9.934;2023-06-14T08:38:44;14.30;;;9.40;;
15449;SDS011;7826;49.784;9.934;2023-06-14T08:41:11;10.83;;;9.00;;
15449;SDS011;7826;49.784;9.934;2023-06-14T08:43:39;12.67;;;8.80;;
15449;SDS011;7826;49.784;9.934;2023-06-14T08:46:06;13.17;;;9.13;;
15449;SDS011;7826;49.784;9.934;2023-06-14T08:48:36;11.03;;;7.80;;
15449;SDS011;7826;49.784;9.934;2023-06-14T08:51:03;12.40;;;8.30;;
15449;SDS011;7826;49.784;9.934;2023-06-14T08:53:31;10.63;;;7.17;;
15449;SDS011;7826;49.784;9.934;2023-06-14T08:55:59;8.30;;;7.10;;
15449;SDS011;7826;49.784;9.934;2023-06-14T08:58:30;10.07;;;7.50;;
15449;SDS011;7826;49.784;9.934;2023-06-14T09:01:01;9.40;;;6.67;;
15449;SDS011;7826;49.784;9.934;2023-06-14T09:03:27;10.90;;;6.97;;
15449;SDS011;7826;49.784;9.934;2023-06-14T09:05:56;7.87;;;6.57;;
15449;SDS011;7826;49.784;9.934;2023-06-14T09:08:25;6.47;;;5.70;;
15449;SDS011;7826;49.784;9.934;2023-06-14T09:10:56;8.73;;;6.30;;
15449;SDS011;7826;49.784;9.934;2023-06-14T09:13:23;13.30;;;6.73;;
15449;SDS011;7826;49.784;9.934;2023-06-14T09:15:50;7.83;;;5.47;;
15449;SDS011;7826;49.784;9.934;2023-06-14T09:18:16;6.33;;;5.23;;
15449;SDS011;7826;49.784;9.934;2023-06-14T09:20:43;6.40;;;5.00;;
15449;SDS011;7826;49.784;9.934;2023-06-14T09:23:10;8.20;;;5.53;;
15449;SDS011;7826;49.784;9.934;2023-06-14T09:25:43;7.40;;;5.37;;
15449;SDS011;7826;49.784;9.934;2023-06-14T09:28:11;7.13;;;5.50;;
15449;SDS011;7826;49.784;9.934;2023-06-14T09:30:38;6.60;;;5.57;;
15449;SDS011;7826;49.784;9.934;2023-06-14T09:33:05;5.80;;;4.83;;
15449;SDS011;7826;49.784;9.934;2023-06-14T09:35:32;6.70;;;4.77;;
15449;SDS011;7826;49.784;9.934;2023-06-14T09:37:58;6.70;;;4.67;;
15449;SDS011;7826;49.784;9.934;2023-06-14T09:40:26;7.30;;;4.30;;
15449;SDS011;7826;49.784;9.934;2023-06-14T09:42:52;4.50;;;4.10;;
15449;SDS011;7826;49.784;9.934;2023-06-14T09:45:19;7.03;;;4.13;;
15449;SDS011;7826;49.784;9.934;2023-06-14T09:47:51;6.60;;;4.40;;
15449;SDS011;7826;49.784;9.934;2023-06-14T09:50:17;5.03;;;4.03;;
15449;SDS011;7826;49.784;9.934;2023-06-14T09:52:44;5.67;;;4.00;;
15449;SDS011;7826;49.784;9.934;2023-06-14T09:55:13;8.50;;;4.17;;
15449;SDS011;7826;49.784;9.934;2023-06-14T09:57:42;5.00;;;4.33;;
15449;SDS011;7826;49.784;9.934;2023-06-14T10:00:13;6.00;;;4.03;;
15449;SDS011;7826;49.784;9.934;2023-06-14T10:02:42;4.33;;;3.80;;
15449;SDS011;7826;49.784;9.934;2023-06-14T10:05:14;5.00;;;3.90;;
15449;SDS011;7826;49.784;9.934;2023-06-14T10:10:45;6.07;;;3.80;;
15449;SDS011;7826;49.784;9.934;2023-06-14T10:13:12;4.63;;;4.10;;
15449;SDS011;7826;49.784;9.934;2023-06-14T10:15:47;5.13;;;3.90;;
15449;SDS011;7826;49.784;9.934;2023-06-14T10:21:18;7.70;;;4.00;;
15449;SDS011;7826;49.784;9.934;2023-06-14T10:23:47;4.23;;;3.90;;
15449;SDS011;7826;49.784;9.934;2023-06-14T10:26:22;4.90;;;3.80;;
15449;SDS011;7826;49.784;9.934;2023-06-14T10:28:56;4.80;;;4.00;;
15449;SDS011;7826;49.784;9.934;2023-06-14T10:31:26;5.50;;;4.20;;
15449;SDS011;7826;49.784;9.934;2023-06-14T10:34:22;9.80;;;4.80;;
15449;SDS011;7826;49.784;9.934;2023-06-14T10:37:12;6.13;;;4.20;;
15449;SDS011;7826;49.784;9.934;2023-06-14T10:39:43;6.23;;;4.27;;
15449;SDS011;7826;49.784;9.934;2023-06-14T10:42:14;5.73;;;4.37;;
15449;SDS011;7826;49.784;9.934;2023-06-14T10:44:42;5.50;;;3.90;;
15449;SDS011;7826;49.784;9.934;2023-06-14T10:50:05;5.67;;;4.20;;
15449;SDS011;7826;49.784;9.934;2023-06-14T10:52:33;6.50;;;3.77;;
15449;SDS011;7826;49.784;9.934;2023-06-14T10:55:08;4.63;;;3.67;;
15449;SDS011;7826;49.784;9.934;2023-06-14T10:57:43;14.53;;;4.17;;
15449;SDS011;7826;49.784;9.934;2023-06-14T11:00:12;4.00;;;3.50;;
15449;SDS011;7826;49.784;9.934;2023-06-14T11:05:41;7.17;;;3.60;;
15449;SDS011;7826;49.784;9.934;2023-06-14T11:11:13;5.30;;;3.30;;
15449;SDS011;7826;49.784;9.934;2023-06-14T11:13:41;5.60;;;3.40;;
15449;SDS011;7826;49.784;9.934;2023-06-14T11:16:11;6.70;;;3.50;;
15449;SDS011;7826;49.784;9.934;2023-06-14T11:18:42;5.87;;;4.00;;
15449;SDS011;7826;49.784;9.934;2023-06-14T11:21:10;8.97;;;4.00;;
15449;SDS011;7826;49.784;9.934;2023-06-14T11:23:37;5.73;;;3.43;;
15449;SDS011;7826;49.784;9.934;2023-06-14T11:26:03;7.17;;;3.80;;
15449;SDS011;7826;49.784;9.934;2023-06-14T11:28:37;19.13;;;5.07;;
15449;SDS011;7826;49.784;9.934;2023-06-14T11:31:03;5.97;;;3.57;;
15449;SDS011;7826;49.784;9.934;2023-06-14T11:33:33;9.70;;;3.80;;
15449;SDS011;7826;49.784;9.934;2023-06-14T11:36:04;5.60;;;3.53;;
15449;SDS011;7826;49.784;9.934;2023-06-14T11:38:37;4.43;;;3.40;;
15449;SDS011;7826;49.784;9.934;2023-06-14T11:41:03;6.43;;;3.70;;
15449;SDS011;7826;49.784;9.934;2023-06-14T11:43:30;3.80;;;3.40;;
15449;SDS011;7826;49.784;9.934;2023-06-14T11:45:59;6.97;;;3.80;;
15449;SDS011;7826;49.784;9.934;2023-06-14T11:48:35;7.50;;;3.40;;
15449;SDS011;7826;49.784;9.934;2023-06-14T11:51:03;6.40;;;3.30;;
15449;SDS011;7826;49.784;9.934;2023-06-14T11:53:29;4.47;;;3.17;;
15449;SDS011;7826;49.784;9.934;2023-06-14T11:55:57;5.40;;;3.80;;
15449;SDS011;7826;49.784;9.934;2023-06-14T11:58:24;9.77;;;3.83;;
15449;SDS011;7826;49.784;9.934;2023-06-14T12:00:52;5.43;;;3.70;;
15449;SDS011;7826;49.784;9.934;2023-06-14T12:03:22;5.17;;;3.33;;
15449;SDS011;7826;49.784;9.934;2023-06-14T12:06:05;5.17;;;3.67;;
15449;SDS011;7826;49.784;9.934;2023-06-14T12:08:36;5.37;;;3.40;;
15449;SDS011;7826;49.784;9.934;2023-06-14T12:11:06;4.23;;;3.60;;
15449;SDS011;7826;49.784;9.934;2023-06-14T12:13:40;4.77;;;3.60;;
15449;SDS011;7826;49.784;9.934;2023-06-14T12:16:08;5.00;;;3.60;;
15449;SDS011;7826;49.784;9.934;2023-06-14T12:18:35;5.13;;;3.60;;
15449;SDS011;7826;49.784;9.934;2023-06-14T12:21:06;10.87;;;4.27;;
15449;SDS011;7826;49.784;9.934;2023-06-14T12:23:46;4.20;;;3.40;;
15449;SDS011;7826;49.784;9.934;2023-06-14T12:26:17;4.43;;;3.60;;
15449;SDS011;7826;49.784;9.934;2023-06-14T12:28:45;6.03;;;3.40;;
15449;SDS011;7826;49.784;9.934;2023-06-14T12:31:13;4.37;;;3.60;;
15449;SDS011;7826;49.784;9.934;2023-06-14T12:33:41;4.90;;;3.60;;
15449;SDS011;7826;49.784;9.934;2023-06-14T12:36:09;4.40;;;3.80;;
15449;SDS011;7826;49.784;9.934;2023-06-14T12:38:36;6.67;;;3.77;;
15449;SDS011;7826;49.784;9.934;2023-06-14T12:41:03;7.53;;;3.77;;
15449;SDS011;7826;49.784;9.934;2023-06-14T12:43:30;5.77;;;3.73;;
15449;SDS011;7826;49.784;9.934;2023-06-14T12:45:56;5.03;;;3.77;;
15449;SDS011;7826;49.784;9.934;2023-06-14T12:48:23;6.57;;;4.20;;
15449;SDS011;7826;49.784;9.934;2023-06-14T12:50:49;4.53;;;3.37;;
15449;SDS011;7826;49.784;9.934;2023-06-14T12:53:16;5.10;;;3.70;;
15449;SDS011;7826;49.784;9.934;2023-06-14T12:55:43;4.50;;;3.90;;
15449;SDS011;7826;49.784;9.934;2023-06-14T12:58:09;6.77;;;3.87;;
15449;SDS011;7826;49.784;9.934;2023-06-14T13:00:38;8.10;;;3.70;;
15449;SDS011;7826;49.784;9.934;2023-06-14T13:03:05;9.33;;;3.70;;
15449;SDS011;7826;49.784;9.934;2023-06-14T13:05:31;4.43;;;3.37;;
15449;SDS011;7826;49.784;9.934;2023-06-14T13:08:00;6.17;;;3.73;;
15449;SDS011;7826;49.784;9.934;2023-06-14T13:10:26;12.23;;;3.80;;
15449;SDS011;7826;49.784;9.934;2023-06-14T13:12:53;22.37;;;5.40;;
15449;SDS011;7826;49.784;9.934;2023-06-14T13:15:20;4.97;;;3.83;;
15449;SDS011;7826;49.784;9.934;2023-06-14T13:17:47;5.13;;;3.97;;
15449;SDS011;7826;49.784;9.934;2023-06-14T13:20:14;10.43;;;4.37;;
15449;SDS011;7826;49.784;9.934;2023-06-14T13:22:42;6.33;;;3.70;;
15449;SDS011;7826;49.784;9.934;2023-06-14T13:25:08;9.30;;;4.40;;
15449;SDS011;7826;49.784;9.934;2023-06-14T13:27:35;5.50;;;4.10;;
15449;SDS011;7826;49.784;9.934;2023-06-14T13:30:03;4.67;;;3.90;;
15449;SDS011;7826;49.784;9.934;2023-06-14T13:32:31;6.57;;;3.93;;
15449;SDS011;7826;49.784;9.934;2023-06-14T13:34:58;5.77;;;4.00;;
15449;SDS011;7826;49.784;9.934;2023-06-14T13:37:24;5.30;;;3.60;;
15449;SDS011;7826;49.784;9.934;2023-06-14T13:39:51;6.30;;;4.30;;
15449;SDS011;7826;49.784;9.934;2023-06-14T13:42:17;10.90;;;3.93;;
15449;SDS011;7826;49.784;9.934;2023-06-14T13:44:44;4.73;;;3.93;;
15449;SDS011;7826;49.784;9.934;2023-06-14T13:47:10;6.87;;;3.80;;
15449;SDS011;7826;49.784;9.934;2023-06-14T13:50:02;9.60;;;4.20;;
15449;SDS011;7826;49.784;9.934;2023-06-14T13:52:53;5.93;;;3.50;;
15449;SDS011;7826;49.784;9.934;2023-06-14T13:55:44;7.23;;;4.40;;
15449;SDS011;7826;49.784;9.934;2023-06-14T13:58:37;5.40;;;4.00;;
15449;SDS011;7826;49.784;9.934;2023-06-14T14:01:28;5.37;;;3.87;;
15449;SDS011;7826;49.784;9.934;2023-06-14T14:04:18;3.43;;;3.20;;
15449;SDS011;7826;49.784;9.934;2023-06-14T14:07:09;5.57;;;3.63;;
15449;SDS011;7826;49.784;9.934;2023-06-14T14:10:01;8.80;;;4.00;;
15449;SDS011;7826;49.784;9.934;2023-06-14T14:12:52;5.27;;;3.37;;
15449;SDS011;7826;49.784;9.934;2023-06-14T14:15:43;6.47;;;3.70;;
15449;SDS011;7826;49.784;9.934;2023-06-14T14:18:34;16.17;;;4.27;;
15449;SDS011;7826;49.784;9.934;2023-06-14T14:21:26;13.03;;;4.10;;
15449;SDS011;7826;49.784;9.934;2023-06-14T14:24:16;4.20;;;3.77;;
15449;SDS011;7826;49.784;9.934;2023-06-14T14:30:51;6.60;;;3.70;;
15449;SDS011;7826;49.784;9.934;2023-06-14T14:33:44;5.10;;;3.63;;
15449;SDS011;7826;49.784;9.934;2023-06-14T14:36:35;7.70;;;3.63;;
15449;SDS011;7826;49.784;9.934;2023-06-14T14:39:05;7.47;;;3.87;;
15449;SDS011;7826;49.784;9.934;2023-06-14T14:41:31;5.00;;;3.57;;
15449;SDS011;7826;49.784;9.934;2023-06-14T14:43:58;4.23;;;3.20;;
15449;SDS011;7826;49.784;9.934;2023-06-14T14:46:27;4.87;;;3.20;;
15449;SDS011;7826;49.784;9.934;2023-06-14T14:48:58;5.60;;;3.73;;
15449;SDS011;7826;49.784;9.934;2023-06-14T14:54:54;3.87;;;2.73;;
15449;SDS011;7826;49.784;9.934;2023-06-14T14:57:26;6.53;;;3.50;;
15449;SDS011;7826;49.784;9.934;2023-06-14T14:59:55;46.53;;;7.03;;
15449;SDS011;7826;49.784;9.934;2023-06-14T15:06:18;14.77;;;4.13;;
15449;SDS011;7826;49.784;9.934;2023-06-14T15:08:45;73.57;;;8.17;;
15449;SDS011;7826;49.784;9.934;2023-06-14T15:11:12;6.37;;;3.37;;
15449;SDS011;7826;49.784;9.934;2023-06-14T15:13:38;8.70;;;3.30;;
15449;SDS011;7826;49.784;9.934;2023-06-14T15:16:05;6.43;;;3.63;;
15449;SDS011;7826;49.784;9.934;2023-06-14T15:18:31;7.07;;;3.97;;
15449;SDS011;7826;49.784;9.934;2023-06-14T15:20:58;6.53;;;3.97;;
15449;SDS011;7826;49.784;9.934;2023-06-14T15:23:24;6.07;;;3.73;;
15449;SDS011;7826;49.784;9.934;2023-06-14T15:25:51;6.17;;;3.30;;
15449;SDS011;7826;49.784;9.934;2023-06-14T15:28:17;52.43;;;7.50;;
15449;SDS011;7826;49.784;9.934;2023-06-14T15:30:44;4.23;;;3.50;;
15449;SDS011;7826;49.784;9.934;2023-06-14T15:33:11;6.90;;;3.60;;
15449;SDS011;7826;49.784;9.934;2023-06-14T15:35:37;4.73;;;3.63;;
15449;SDS011;7826;49.784;9.934;2023-06-14T15:38:04;4.10;;;3.50;;